SSEC Globe Logo

Space Science and Engineering Center

Surface Aviation Observations

KAIG 221915Z AUTO 23006KT 10SM BKN041 BKN046 OVC050 22/12
     A3005 RMK AO2 T02170123=
KAIG 221915Z AUTO 23006KT 10SM BKN041 BKN046 OVC050 22/12
     A3005 RMK AO2 T02170123=
KAIG 221855Z AUTO 00000KT 10SM BKN039 BKN048 21/13 A3005 RMK
     AO2 T02100129=
KAIG 221855Z AUTO 00000KT 10SM BKN039 BKN048 21/13 A3005 RMK
     AO2 T02100129=
KC29 221915Z AUTO 31003KT 10SM OVC014 18/14 A3008 RMK AO1
     T01840141=
KC29 221915Z AUTO 31003KT 10SM OVC014 18/14 A3008 RMK AO1
     T01840141=
KC29 221855Z AUTO 00000KT 10SM OVC014 18/14 A3009 RMK AO1
     T01790139=
KC29 221855Z AUTO 00000KT 10SM OVC014 18/14 A3009 RMK AO1
     T01790139=
KBCK 221915Z AUTO 00000KT 10SM OVC013 17/12 A3007 RMK AO2
     T01740124=
KBCK 221915Z AUTO 00000KT 10SM OVC013 17/12 A3007 RMK AO2
     T01740124=
KBCK 221855Z AUTO 00000KT 10SM OVC013 17/12 A3008 RMK AO2
     T01680122=
KBCK 221855Z AUTO 00000KT 10SM OVC013 17/12 A3008 RMK AO2
     T01680122=
KUBE 221915Z AUTO 00000KT 10SM BKN029 19/12 A3006 RMK AO2=
KUBE 221915Z AUTO 00000KT 10SM BKN029 19/12 A3006 RMK AO2=
KUBE 221855Z AUTO 00000KT 10SM OVC027 18/12 A3007 RMK AO2=
KUBE 221855Z AUTO 00000KT 10SM OVC027 18/12 A3007 RMK AO2=
KPVB 221915Z AUTO 34003KT 10SM BKN018 BKN024 OVC030 19/17
     A3008 RMK AO1 T01940167=
KPVB 221915Z AUTO 34003KT 10SM BKN018 BKN024 OVC030 19/17
     A3008 RMK AO1 T01940167=
KPVB 221855Z AUTO 00000KT 10SM BKN020 OVC025 19/17 A3008 RMK
     AO1 T01880166=
KPVB 221855Z AUTO 00000KT 10SM BKN020 OVC025 19/17 A3008 RMK
     AO1 T01880166=
KEZS 221915Z AUTO 20003KT 10SM SCT030 OVC050 23/14 A3004 RMK
     AO2 T02280144=
KEZS 221915Z AUTO 20003KT 10SM SCT030 OVC050 23/14 A3004 RMK
     AO2 T02280144=
KEZS 221855Z AUTO 25005KT 10SM BKN032 OVC050 22/14 A3005 RMK
     AO2 T02200139=
KEZS 221855Z AUTO 25005KT 10SM BKN032 OVC050 22/14 A3005 RMK
     AO2 T02200139=
KARV 221915Z AUTO 31005KT 10SM SCT055 BKN080 25/11 A3004 RMK
     AO2 T02480113=
KARV 221915Z AUTO 31005KT 10SM SCT055 BKN080 25/11 A3004 RMK
     AO2 T02480113=
KARV 221855Z AUTO 00000KT 10SM SCT055 OVC080 24/10 A3004 RMK
     AO2 T02360097=
KARV 221855Z AUTO 00000KT 10SM SCT055 OVC080 24/10 A3004 RMK
     AO2 T02360097=
KASX 221853Z AUTO 00000KT 10SM CLR 24/10 A3002 RMK AO2
     SLP167 T02440100=
KASX 221853Z AUTO 00000KT 10SM CLR 24/10 A3002 RMK AO2
     SLP167 T02440100=
KATW 221845Z 00000KT 10SM BKN020 19/13 A3005=
KATW 221845Z 00000KT 10SM BKN020 19/13 A3005=
KAUW 221919Z AUTO 23005KT 10SM SCT028 BKN035 OVC046 20/14
     A3005 RMK AO2 T02000139=
KAUW 221854Z AUTO 23008KT 10SM BKN028 BKN034 OVC041 19/13
     A3005 RMK AO2 SLP181 T01940133=
KAUW 221854Z AUTO 23008KT 10SM BKN028 BKN034 OVC041 19/13
     A3005 RMK AO2 SLP181 T01940133=
KBUU 221915Z AUTO 35004KT 10SM OVC014 17/13 A3008 RMK AO2
     T01670130=
KBUU 221915Z AUTO 35004KT 10SM OVC014 17/13 A3008 RMK AO2
     T01670130=
KBUU 221855Z AUTO 29003KT 10SM OVC014 17/13 A3008 RMK AO2
     T01660129=
KBUU 221855Z AUTO 29003KT 10SM OVC014 17/13 A3008 RMK AO2
     T01660129=
KCLI 221915Z AUTO 26005KT 10SM SCT031 SCT044 OVC049 21/12
     A3004 RMK AO2 T02130122=
KCLI 221915Z AUTO 26005KT 10SM SCT031 SCT044 OVC049 21/12
     A3004 RMK AO2 T02130122=
KCLI 221855Z AUTO 26005KT 10SM SCT031 OVC047 22/13 A3005 RMK
     AO2 T02230129=
KCLI 221855Z AUTO 26005KT 10SM SCT031 OVC047 22/13 A3005 RMK
     AO2 T02230129=
KCMY 221915Z AUTO 00000KT 10SM OVC012 16/13 A3008 RMK AO2
     T01580131=
KCMY 221915Z AUTO 00000KT 10SM OVC012 16/13 A3008 RMK AO2
     T01580131=
KCMY 221855Z AUTO 36003KT 10SM OVC012 16/13 A3009 RMK AO2
     T01550131=
KCMY 221855Z AUTO 36003KT 10SM OVC012 16/13 A3009 RMK AO2
     T01550131=
KCWA 221851Z 21006KT 10SM BKN032 OVC044 20/14 A3008=
KCWA 221851Z 21006KT 10SM BKN032 OVC044 20/14 A3008=
KDLL 221915Z AUTO 00000KT 10SM OVC013 17/13 A3008 RMK AO2
     T01690127=
KDLL 221915Z AUTO 00000KT 10SM OVC013 17/13 A3008 RMK AO2
     T01690127=
KDLL 221855Z AUTO 00000KT 10SM OVC013 16/13 A3008 RMK AO2
     T01630127=
KDLL 221855Z AUTO 00000KT 10SM OVC013 16/13 A3008 RMK AO2
     T01630127=
KEAU 221856Z 08004KT 10SM OVC020 18/13 A3007 RMK AO2 SLP181
     T01830133=
KEAU 221856Z 08004KT 10SM OVC020 18/13 A3007 RMK AO2 SLP181
     T01830133=
KEFT 221915Z AUTO 01004KT 10SM BKN017 OVC024 18/15 A3008 RMK
     AO2=
KEFT 221915Z AUTO 01004KT 10SM BKN017 OVC024 18/15 A3008 RMK
     AO2=
KEFT 221855Z AUTO 01005KT 10SM OVC017 18/15 A3008 RMK AO2=
KEFT 221855Z AUTO 01005KT 10SM OVC017 18/15 A3008 RMK AO2=
KEGV 221915Z AUTO 22006KT 10SM SCT075 24/04 A3003 RMK AO2
     T02380040=
KEGV 221915Z AUTO 22006KT 10SM SCT075 24/04 A3003 RMK AO2
     T02380040=
KEGV 221855Z AUTO 26009KT 230V310 10SM CLR 24/04 A3003 RMK
     AO2 T02370044=
KEGV 221855Z AUTO 26009KT 230V310 10SM CLR 24/04 A3003 RMK
     AO2 T02370044=
KENW 221853Z 00000KT 10SM OVC011 16/13 A3008 RMK AO2 SLP187
     T01560128=
KENW 221853Z 00000KT 10SM OVC011 16/13 A3008 RMK AO2 SLP187
     T01560128=
KETB 221915Z AUTO 29006KT 10SM OVC018 17/14 A3006 RMK AO2=
KETB 221915Z AUTO 29006KT 10SM OVC018 17/14 A3006 RMK AO2=
KETB 221855Z AUTO 26003KT 10SM OVC020 17/14 A3006 RMK AO2=
KETB 221855Z AUTO 26003KT 10SM OVC020 17/14 A3006 RMK AO2=
KFLD 221853Z AUTO VRB04KT 10SM BKN015 18/14 A3007 RMK AO2
     SLP182 T01780139=
KFLD 221853Z AUTO VRB04KT 10SM BKN015 18/14 A3007 RMK AO2
     SLP182 T01780139=
KGRB 221919Z 26006KT 10SM BKN026 BKN030 22/15 A3005 RMK AO2
     T02170150=
KGRB 221853Z 32005KT 10SM SCT023 21/15 A3005 RMK AO2 SLP177
     T02060150=
KGRB 221853Z 32005KT 10SM SCT023 21/15 A3005 RMK AO2 SLP177
     T02060150=
KHYR 221853Z AUTO 10SM CLR 23/13 A3005 RMK AO2 SLP176
     T02280133=
KHYR 221853Z AUTO 10SM CLR 23/13 A3005 RMK AO2 SLP176
     T02280133=
KISW 221854Z AUTO VRB03KT 10SM OVC018 19/13 A3009 RMK AO2
     SLP189 T01890133 TSNO=
KISW 221854Z AUTO VRB03KT 10SM OVC018 19/13 A3009 RMK AO2
     SLP189 T01890133 TSNO=
KJVL 221845Z 33007KT 6SM BR OVC018 18/14 A3008=
KJVL 221845Z 33007KT 6SM BR OVC018 18/14 A3008=
KLNL 221915Z AUTO 26006KT 10SM BKN095 24/04 A3004 RMK AO2
     T02360037=
KLNL 221915Z AUTO 26006KT 10SM BKN095 24/04 A3004 RMK AO2
     T02360037=
KLNL 221855Z AUTO 33003KT 10SM SCT095 24/02 A3004 RMK AO2
     T02350022=
KLNL 221855Z AUTO 33003KT 10SM SCT095 24/02 A3004 RMK AO2
     T02350022=
KLNR 221856Z AUTO 00000KT 10SM OVC017 18/14 A3008 RMK AO2
     SLP181 T01830144=
KLNR 221856Z AUTO 00000KT 10SM OVC017 18/14 A3008 RMK AO2
     SLP181 T01830144=
KLSE 221853Z 00000KT 10SM OVC019 19/13 A3007 RMK AO2 SLP178
     T01890133=
KLSE 221853Z 00000KT 10SM OVC019 19/13 A3007 RMK AO2 SLP178
     T01890133=
KLUM 221915Z AUTO 00000KT 10SM BKN025 BKN031 20/13 A3006 RMK
     AO2 T02010131=
KLUM 221915Z AUTO 00000KT 10SM BKN025 BKN031 20/13 A3006 RMK
     AO2 T02010131=
KLUM 221855Z AUTO 10003KT 10SM SCT021 SCT033 20/14 A3007 RMK
     AO2 T02040137=
KLUM 221855Z AUTO 10003KT 10SM SCT021 SCT033 20/14 A3007 RMK
     AO2 T02040137=
KMDZ 221915Z AUTO 26005KT 10SM SCT044 20/13 A3007 RMK AO2
     T02040129=
KMDZ 221915Z AUTO 26005KT 10SM SCT044 20/13 A3007 RMK AO2
     T02040129=
KMDZ 221855Z AUTO 25006KT 10SM SCT040 20/13 A3007 RMK AO2
     T02010127=
KMDZ 221855Z AUTO 25006KT 10SM SCT040 20/13 A3007 RMK AO2
     T02010127=
KMFI 221854Z AUTO 25007KT 220V280 10SM BKN017 OVC025 18/14
     A3007 RMK AO2 SLP185 T01830139 TSNO=
KMFI 221854Z AUTO 25007KT 220V280 10SM BKN017 OVC025 18/14
     A3007 RMK AO2 SLP185 T01830139 TSNO=
KMKE 221852Z 00000KT 9SM BKN016 16/13 A3007 RMK AO2 SLP185
     T01560128=
KMKE 221852Z 00000KT 9SM BKN016 16/13 A3007 RMK AO2 SLP185
     T01560128=
KMRJ 221915Z AUTO 32005KT 10SM OVC023 20/16 A3008 RMK AO2=
KMRJ 221915Z AUTO 32005KT 10SM OVC023 20/16 A3008 RMK AO2=
KMRJ 221855Z AUTO 33005KT 10SM OVC023 19/16 A3009 RMK AO2=
KMRJ 221855Z AUTO 33005KT 10SM OVC023 19/16 A3009 RMK AO2=
KMSN 221853Z VRB04KT 7SM OVC015 17/13 A3008 RMK AO2 SLP185
     T01720133=
KMSN 221853Z VRB04KT 7SM OVC015 17/13 A3008 RMK AO2 SLP185
     T01720133=
KMTW 221910Z AUTO VRB03KT 10SM FEW016 18/13 A3006 RMK AO2=
KMTW 221856Z AUTO 33005KT 10SM BKN016 18/14 A3006 RMK AO2
     SLPNO T01780139=
KMTW 221856Z AUTO 33005KT 10SM BKN016 18/14 A3006 RMK AO2
     SLPNO T01780139=
KMTW 221851Z AUTO VRB03KT 10SM BKN016 18/13 A3006 RMK AO2=
KMWC 221845Z 31005KT 10SM OVC014 17/12 A3008=
KMWC 221845Z 31005KT 10SM OVC014 17/12 A3008=
KOEO 221915Z AUTO 22003KT 10SM BKN031 BKN038 21/13 A3008 RMK
     AO2 T02090134=
KOEO 221915Z AUTO 22003KT 10SM BKN031 BKN038 21/13 A3008 RMK
     AO2 T02090134=
KOEO 221855Z AUTO 17004KT 10SM OVC027 21/14 A3008 RMK AO2
     T02080135=
KOEO 221855Z AUTO 17004KT 10SM OVC027 21/14 A3008 RMK AO2
     T02080135=
KOSH 221914Z 05004KT 3/4SM R36/P6000FT HZ BKN019 19/14 A3006
     RMK AO2 T01940144 $=
KOSH 221853Z 32005KT 10SM BKN017 18/14 A3006 RMK AO2 SLP177
     T01830139=
KOSH 221853Z 32005KT 10SM BKN017 18/14 A3006 RMK AO2 SLP177
     T01830139=
KOVS 221853Z AUTO 00000KT 10SM OVC023 20/15 A3008 RMK AO2
     SLP184 T02000150=
KOVS 221853Z AUTO 00000KT 10SM OVC023 20/15 A3008 RMK AO2
     SLP184 T02000150=
KPBH 221915Z AUTO 33003KT 10SM SCT038 OVC046 21/14 A3004 RMK
     AO2 T02100135=
KPBH 221915Z AUTO 33003KT 10SM SCT038 OVC046 21/14 A3004 RMK
     AO2 T02100135=
KPBH 221855Z AUTO 23005KT 10SM SCT038 BKN046 OVC070 22/13
     A3005 RMK AO2 T02150132=
KPBH 221855Z AUTO 23005KT 10SM SCT038 BKN046 OVC070 22/13
     A3005 RMK AO2 T02150132=
KPCZ 221915Z AUTO 00000KT 10SM OVC034 22/14 A3006 RMK AO2
     T02240135=
KPCZ 221915Z AUTO 00000KT 10SM OVC034 22/14 A3006 RMK AO2
     T02240135=
KPCZ 221855Z AUTO 00000KT 10SM OVC030 22/13 A3006 RMK AO2
     T02170132=
KPCZ 221855Z AUTO 00000KT 10SM OVC030 22/13 A3006 RMK AO2
     T02170132=
KPDC 221915Z AUTO 22004KT 10SM BKN025 OVC031 21/14 A3006 RMK
     AO2 T02070143=
KPDC 221915Z AUTO 22004KT 10SM BKN025 OVC031 21/14 A3006 RMK
     AO2 T02070143=
KPDC 221855Z AUTO 28005KT 10SM OVC025 20/14 A3007 RMK AO2
     T02020135=
KPDC 221855Z AUTO 28005KT 10SM OVC025 20/14 A3007 RMK AO2
     T02020135=
KRAC 221909Z AUTO 07004KT 7SM OVC013 14/12 A3009 RMK AO2
     T01440117=
KRAC 221853Z AUTO 05005KT 7SM OVC018 14/12 A3010 RMK AO2
     SLP193 T01440117=
KRAC 221853Z AUTO 05005KT 7SM OVC018 14/12 A3010 RMK AO2
     SLP193 T01440117=
KRCX 221915Z AUTO 20005KT 10SM SCT026 OVC050 21/14 A3008 RMK
     AO2 T02060136=
KRCX 221915Z AUTO 20005KT 10SM SCT026 OVC050 21/14 A3008 RMK
     AO2 T02060136=
KRCX 221855Z AUTO 21005KT 10SM BKN026 OVC050 20/14 A3009 RMK
     AO2 T02040136=
KRCX 221855Z AUTO 21005KT 10SM BKN026 OVC050 20/14 A3009 RMK
     AO2 T02040136=
KRHI 221853Z AUTO VRB03KT 10SM FEW060 25/07 A3004 RMK AO2
     SLP171 T02500072=
KRHI 221853Z AUTO VRB03KT 10SM FEW060 25/07 A3004 RMK AO2
     SLP171 T02500072=
KRNH 221915Z AUTO 00000KT 10SM CLR 21/12 A3006 RMK AO2
     T02060122=
KRNH 221915Z AUTO 00000KT 10SM CLR 21/12 A3006 RMK AO2
     T02060122=
KRNH 221855Z AUTO 24004KT 10SM CLR 20/13 A3006 RMK AO2
     T02030125=
KRNH 221855Z AUTO 24004KT 10SM CLR 20/13 A3006 RMK AO2
     T02030125=
KRPD 221915Z AUTO 00000KT 10SM SCT043 21/13 A3007 RMK AO2
     T02050126=
KRPD 221915Z AUTO 00000KT 10SM SCT043 21/13 A3007 RMK AO2
     T02050126=
KRPD 221855Z AUTO 00000KT 10SM SCT025 OVC043 19/13 A3009 RMK
     AO2 T01940129=
KRPD 221855Z AUTO 00000KT 10SM SCT025 OVC043 19/13 A3009 RMK
     AO2 T01940129=
KRRL 221915Z AUTO 26009KT 10SM SCT032 SCT038 BKN060 22/15
     A3005 RMK AO2 T02230145=
KRRL 221915Z AUTO 26009KT 10SM SCT032 SCT038 BKN060 22/15
     A3005 RMK AO2 T02230145=
KRRL 221855Z AUTO 23009KT 10SM SCT038 BKN050 22/14 A3006 RMK
     AO2 T02190138=
KRRL 221855Z AUTO 23009KT 10SM SCT038 BKN050 22/14 A3006 RMK
     AO2 T02190138=
KRYV 221915Z AUTO 00000KT 10SM OVC015 17/14 A3007 RMK AO2
     T01710144=
KRYV 221915Z AUTO 00000KT 10SM OVC015 17/14 A3007 RMK AO2
     T01710144=
KRYV 221855Z AUTO 28004KT 10SM OVC013 17/15 A3008 RMK AO2
     T01680146=
KRYV 221855Z AUTO 28004KT 10SM OVC013 17/15 A3008 RMK AO2
     T01680146=
KRZN 221915Z AUTO 00000KT 10SM SCT034 SCT045 SCT050 21/13
     A3005 RMK AO2 T02130125=
KRZN 221855Z AUTO 15004KT 10SM SCT027 BKN034 OVC050 20/13
     A3006 RMK AO2 T02030132=
KRZN 221855Z AUTO 15004KT 10SM SCT027 BKN034 OVC050 20/13
     A3006 RMK AO2 T02030132=
KSBM 221853Z AUTO VRB05KT 10SM OVC017 18/13 A3006 RMK AO2
     SLP179 T01830133 TSNO=
KSBM 221853Z AUTO VRB05KT 10SM OVC017 18/13 A3006 RMK AO2
     SLP179 T01830133 TSNO=
KSTE 221915Z AUTO 24004KT 10SM BKN027 19/13 A3007 RMK AO2
     T01900128=
KSTE 221915Z AUTO 24004KT 10SM BKN027 19/13 A3007 RMK AO2
     T01900128=
KSTE 221855Z AUTO 21007KT 10SM BKN023 19/13 A3008 RMK AO2
     T01890132=
KSTE 221855Z AUTO 21007KT 10SM BKN023 19/13 A3008 RMK AO2
     T01890132=
KSUE 221856Z AUTO 32008KT 10SM CLR 18/12 RMK AO2 SLPNO
     T01830122 $=
KSUE 221856Z AUTO 32008KT 10SM CLR 18/12 RMK AO2 SLPNO
     T01830122 $=
KSUW 221915Z AUTO 21007KT 10SM SCT048 BKN060 24/13 A3001 RMK
     AO2 T02430130=
KSUW 221915Z AUTO 21007KT 10SM SCT048 BKN060 24/13 A3001 RMK
     AO2 T02430130=
KSUW 221855Z AUTO 24005KT 10SM BKN050 24/13 A3002 RMK AO2
     T02430131=
KSUW 221855Z AUTO 24005KT 10SM BKN050 24/13 A3002 RMK AO2
     T02430131=
KTKV 221915Z AUTO 28006KT 10SM OVC050 22/11 A3005 RMK AO2
     T02180110=
KTKV 221915Z AUTO 28006KT 10SM OVC050 22/11 A3005 RMK AO2
     T02180110=
KTKV 221855Z AUTO 00000KT 10SM OVC050 22/11 A3006 RMK AO2
     T02150108=
KTKV 221855Z AUTO 00000KT 10SM OVC050 22/11 A3006 RMK AO2
     T02150108=
KUES 221845Z 28004KT 10SM OVC015 16/12 A3009=
KUES 221845Z 28004KT 10SM OVC015 16/12 A3009=
KUNU 221915Z AUTO 00000KT 10SM OVC014 16/14 A3008 RMK AO2
     T01640136=
KUNU 221915Z AUTO 00000KT 10SM OVC014 16/14 A3008 RMK AO2
     T01640136=
KUNU 221855Z AUTO 00000KT 10SM OVC012 16/13 A3009 RMK AO2
     T01580133=
KUNU 221855Z AUTO 00000KT 10SM OVC012 16/13 A3009 RMK AO2
     T01580133=
KVOK 221856Z 16003KT 10SM OVC015 18/14 A3008 RMK AO2A
     SLP190=
METAR KVOK 221856Z 16003KT 10SM OVC015 18/14 A3008 RMK AO2A
     SLP190=
KVOK 221856Z 16003KT 10SM OVC015 18/14 A3008 RMK AO2A
     SLP190=
KVOK 221856Z 16003KT 10SM OVC015 18/14 A3008 RMK AO2A
     SLP190=
METAR KVOK 221856Z 16003KT 10SM OVC015 18/14 A3008 RMK AO2A
     SLP190=
KY50 221856Z AUTO 22004KT 10SM BKN020 19/14 A3007 RMK AO2
     SLP207 T01940144 $=
KY50 221856Z AUTO 22004KT 10SM BKN020 19/14 A3007 RMK AO2
     SLP207 T01940144 $=
KY51 221915Z AUTO 32003KT 10SM OVC013 17/15 A3008 RMK AO1
     T01680149=
KY51 221915Z AUTO 32003KT 10SM OVC013 17/15 A3008 RMK AO1
     T01680149=
KY51 221855Z AUTO 31003KT 10SM OVC013 17/15 A3008 RMK AO1
     T01650148=
KY51 221855Z AUTO 31003KT 10SM OVC013 17/15 A3008 RMK AO1
     T01650148=
KDBQ 221853Z 30006KT 10SM BKN016 OVC026 19/15 A3008 RMK AO2
     SLP186 T01890150=
KDBQ 221853Z 30006KT 10SM BKN016 OVC026 19/15 A3008 RMK AO2
     SLP186 T01890150=
KRST 221854Z AUTO 32003KT 10SM OVC020 20/15 A3007 RMK AO2
     SLP181 T02000150=
KRST 221854Z AUTO 32003KT 10SM OVC020 20/15 A3007 RMK AO2
     SLP181 T02000150=
KMSP 221853Z VRB04KT 10SM FEW032 BKN041 23/14 A3004 RMK AO2
     SLP171 T02280144=
KMSP 221853Z VRB04KT 10SM FEW032 BKN041 23/14 A3004 RMK AO2
     SLP171 T02280144=
KRFD 221854Z 34006KT 10SM BKN024 OVC035 20/15 A3008 RMK AO2
     SLP184 T02000150=
KRFD 221854Z 34006KT 10SM BKN024 OVC035 20/15 A3008 RMK AO2
     SLP184 T02000150=
KORD 221851Z 03007KT 10SM BKN018 OVC025 17/12 A3006 RMK AO2
     SLP180 T01720122=
KORD 221851Z 03007KT 10SM BKN018 OVC025 17/12 A3006 RMK AO2
     SLP180 T01720122=